Time;durP1;ratioP1;P1;durP2;ratioP2;P2;SDS_P1;SDS_P2;PMS_P1;PMS_P2;Temp;Humidity;BMP_temperature;BMP_pressure;BME280_temperature;BME280_humidity;BME280_pressure;Samples;Min_cycle;Max_cycle;Signal;HPM_P1;HPM_P2
2021/03/06 00:01:04;;;;;;;106.60;48.97;;;;;;;6.84;77.15;102289.78;4981161;28;20065;-88
2021/03/06 00:03:31;;;;;;;79.18;45.88;;;;;;;5.78;76.41;102106.22;4972813;28;20475;-84
2021/03/06 00:05:58;;;;;;;80.80;48.28;;;;;;;6.00;75.98;102150.38;4976936;28;20022;-87
2021/03/06 00:08:26;;;;;;;68.70;44.95;;;;;;;5.67;75.75;102052.56;4988099;28;20487;-85
2021/03/06 00:10:54;;;;;;;75.72;45.17;;;;;;;6.25;76.90;102148.25;4973552;28;20157;-86
2021/03/06 00:13:22;;;;;;;64.13;38.30;;;;;;;6.43;77.80;102161.69;4967775;28;20043;-84
2021/03/06 00:15:49;;;;;;;63.38;40.33;;;;;;;6.64;77.92;102198.63;4972219;28;20023;-87
2021/03/06 00:18:16;;;;;;;59.33;39.35;;;;;;;7.01;76.72;102228.19;4973462;28;20031;-85
2021/03/06 00:20:44;;;;;;;66.50;42.38;;;;;;;6.79;77.08;102225.31;4978644;28;20050;-83
2021/03/06 00:23:11;;;;;;;67.07;43.65;;;;;;;7.33;76.88;102311.47;4973346;28;20042;-84
2021/03/06 00:25:38;;;;;;;70.47;40.85;;;;;;;7.10;76.38;102221.53;4973963;28;20042;-84
2021/03/06 00:28:06;;;;;;;62.85;38.13;;;;;;;7.48;76.43;102283.94;4977633;28;20018;-85
2021/03/06 00:30:33;;;;;;;63.83;39.10;;;;;;;7.48;75.89;102284.75;4968953;28;20042;-83
2021/03/06 00:33:01;;;;;;;63.08;41.47;;;;;;;6.38;76.33;102103.63;4968832;28;20030;-84
2021/03/06 00:35:29;;;;;;;64.63;42.30;;;;;;;7.72;75.94;102302.03;4965418;28;20099;-83
2021/03/06 00:37:56;;;;;;;65.90;42.10;;;;;;;6.44;75.44;102119.34;4983197;28;20035;-85
2021/03/06 00:40:23;;;;;;;69.97;42.17;;;;;;;7.83;74.67;102306.19;4976007;28;20040;-88
2021/03/06 00:42:50;;;;;;;71.05;44.13;;;;;;;7.45;74.64;102219.03;4984682;28;20034;-89
2021/03/06 00:45:18;;;;;;;76.47;44.30;;;;;;;7.70;74.22;102237.09;4976545;28;20145;-90
2021/03/06 00:47:45;;;;;;;79.65;49.45;;;;;;;7.15;72.22;102130.91;4973189;28;20101;-91
2021/03/06 00:50:26;;;;;;;75.65;49.70;;;;;;;7.13;71.93;102110.94;4976150;28;20054;-88
2021/03/06 00:52:55;;;;;;;;;;;;;;;8.44;71.39;102304.09;4989362;28;20042;-87
2021/03/06 00:55:22;;;;;;;82.90;53.22;;;;;;;8.30;71.99;102275.50;4991927;28;19949;-85
2021/03/06 00:57:49;;;;;;;80.25;55.45;;;;;;;8.72;71.03;102323.50;4973056;28;20062;-87
2021/03/06 01:00:17;;;;;;;97.78;59.67;;;;;;;7.09;70.52;102055.41;4972733;28;20064;-85
2021/03/06 01:02:44;;;;;;;96.68;62.78;;;;;;;8.29;69.84;102226.88;4970880;28;20031;-83
2021/03/06 01:05:12;;;;;;;89.53;58.30;;;;;;;8.20;69.74;102210.47;4966377;28;20019;-82
2021/03/06 01:07:39;;;;;;;97.63;61.15;;;;;;;8.16;69.19;102191.75;4968557;28;20019;-83
2021/03/06 01:10:15;;;;;;;95.82;65.60;;;;;;;8.54;69.12;102260.47;4967232;28;20109;-83
2021/03/06 01:12:42;;;;;;;95.45;61.25;;;;;;;7.90;69.65;102149.09;4969431;28;20049;-84
2021/03/06 01:15:09;;;;;;;91.38;59.63;;;;;;;8.20;69.94;102237.22;4968932;28;20558;-86
2021/03/06 01:17:36;;;;;;;95.63;61.28;;;;;;;7.92;69.52;102158.84;4967583;28;20161;-83
2021/03/06 01:20:05;;;;;;;100.18;62.35;;;;;;;8.81;69.74;102310.41;4971383;28;20018;-84
2021/03/06 01:22:33;;;;;;;89.35;57.25;;;;;;;8.00;70.09;102177.19;4968154;28;20077;-85
2021/03/06 01:25:00;;;;;;;90.45;56.50;;;;;;;7.94;69.90;102158.66;4974690;28;20560;-86
2021/03/06 01:27:27;;;;;;;84.45;55.08;;;;;;;8.75;69.62;102267.03;4972823;28;20058;-86
2021/03/06 01:29:54;;;;;;;94.63;57.30;;;;;;;8.26;69.49;102150.88;4980574;28;20037;-86
2021/03/06 01:32:21;;;;;;;80.35;48.97;;;;;;;8.77;67.08;102273.19;4973261;28;20061;-86
2021/03/06 01:34:48;;;;;;;72.93;47.88;;;;;;;8.13;67.60;102145.28;4969311;28;20038;-86
2021/03/06 01:37:19;;;;;;;79.45;50.30;;;;;;;9.24;67.92;102314.09;4967242;28;20037;-85
2021/03/06 01:39:46;;;;;;;82.85;49.10;;;;;;;7.91;66.99;102103.94;4969670;28;20122;-84
2021/03/06 01:42:13;;;;;;;81.13;49.88;;;;;;;9.14;66.74;102317.22;4970943;28;20523;-84
2021/03/06 01:44:46;;;;;;;76.30;47.85;;;;;;;7.35;67.43;102048.50;4968436;28;20039;-86
2021/03/06 01:47:15;;;;;;;77.00;48.97;;;;;;;6.35;67.43;101900.44;4971408;28;20027;-94
2021/03/06 01:49:42;;;;;;;81.03;49.80;;;;;;;8.98;67.51;102302.66;4967274;28;20031;-90
2021/03/06 01:52:09;;;;;;;79.00;50.42;;;;;;;7.79;67.74;102143.03;4970657;28;20117;-88
2021/03/06 01:54:39;;;;;;;81.30;51.03;;;;;;;7.72;66.94;102081.47;4970986;28;20115;-87
2021/03/06 01:57:06;;;;;;;85.65;51.90;;;;;;;8.30;67.54;102141.16;4968930;28;20035;-88
2021/03/06 01:59:33;;;;;;;76.00;50.03;;;;;;;9.39;65.71;102278.06;4972293;28;20023;-84
2021/03/06 02:02:00;;;;;;;75.72;47.25;;;;;;;7.71;65.38;102010.84;4967592;28;20035;-86
2021/03/06 02:04:28;;;;;;;74.32;47.75;;;;;;;8.48;65.70;102128.75;4966202;28;20041;-86
2021/03/06 02:06:55;;;;;;;86.57;49.33;;;;;;;9.00;64.94;102143.09;4966489;28;20109;-85
2021/03/06 02:09:23;;;;;;;80.30;48.05;;;;;;;9.90;64.51;102292.50;4966525;28;20058;-86
2021/03/06 02:11:54;;;;;;;80.93;50.58;;;;;;;9.13;63.90;102164.41;4964932;28;20126;-87
2021/03/06 02:14:36;;;;;;;79.03;50.28;;;;;;;10.02;63.81;102281.69;4966694;28;20035;-87
2021/03/06 02:17:35;;;;;;;85.47;49.58;;;;;;;9.17;63.66;102176.75;4963662;28;20187;-86
2021/03/06 02:20:34;;;;;;;83.50;49.92;;;;;;;9.64;64.57;102289.47;4960309;28;20039;-87
2021/03/06 02:23:22;;;;;;;76.05;47.53;;;;;;;9.44;65.72;102287.44;4943073;28;20094;-86
2021/03/06 02:26:07;;;;;;;76.50;51.65;;;;;;;9.58;64.97;102293.88;4968614;28;20039;-87
2021/03/06 02:28:48;;;;;;;69.90;48.05;;;;;;;8.65;65.72;102180.91;4961281;28;20755;-86
2021/03/06 02:31:16;;;;;;;81.43;50.63;;;;;;;9.21;65.90;102293.25;4968395;28;20066;-92
2021/03/06 02:34:03;;;;;;;76.68;50.05;;;;;;;8.92;66.17;102275.88;4971718;28;20026;-89
2021/03/06 02:36:34;;;;;;;79.85;49.70;;;;;;;9.04;65.78;102248.53;4970728;28;20058;-89
2021/03/06 02:39:04;;;;;;;79.70;48.28;;;;;;;9.38;64.67;102299.31;4971981;28;20097;-88
2021/03/06 02:41:33;;;;;;;73.85;46.58;;;;;;;9.17;64.78;102276.22;4965094;28;20043;-89
2021/03/06 02:44:03;;;;;;;85.35;48.85;;;;;;;9.49;64.85;102300.66;4973242;28;20038;-89
2021/03/06 02:46:32;;;;;;;77.47;50.72;;;;;;;9.14;64.94;102276.66;4972329;28;20031;-87
2021/03/06 02:48:59;;;;;;;74.22;48.10;;;;;;;8.53;64.49;102147.50;4973696;28;20049;-87
2021/03/06 02:51:26;;;;;;;79.80;47.97;;;;;;;9.57;64.11;102310.69;4975007;28;20092;-91
2021/03/06 02:53:53;;;;;;;81.43;47.92;;;;;;;9.49;63.68;102255.53;4971981;28;20113;-93
2021/03/06 02:56:20;;;;;;;71.30;46.33;;;;;;;9.02;62.76;102176.91;4978616;28;20070;-89
2021/03/06 02:58:46;;;;;;;72.30;47.45;;;;;;;9.97;62.08;102291.50;4974659;28;20022;-90
2021/03/06 03:01:37;;;;;;;75.63;45.70;;;;;;;10.01;62.08;102280.88;4993796;28;20492;-88
2021/03/06 03:04:33;;;;;;;66.25;43.53;;;;;;;9.89;61.98;102266.78;4980448;28;20027;-89
2021/03/06 03:07:09;;;;;;;79.45;45.63;;;;;;;9.82;61.41;102249.31;4974220;28;20789;-88
2021/03/06 03:09:44;;;;;;;69.13;43.05;;;;;;;9.84;61.71;102258.25;4974674;28;20041;-89
2021/03/06 03:12:25;;;;;;;67.93;43.30;;;;;;;9.81;61.37;102273.34;4975626;28;20100;-91
2021/03/06 03:15:41;;;;;;;69.18;43.22;;;;;;;10.26;61.04;102277.50;4973026;28;20027;-88
2021/03/06 03:18:18;;;;;;;70.72;41.90;;;;;;;10.51;60.05;102263.94;4979800;28;20070;-89
2021/03/06 03:20:57;;;;;;;66.40;41.95;;;;;;;9.63;59.47;102110.75;4982610;28;20049;-88
2021/03/06 03:23:37;;;;;;;63.25;39.85;;;;;;;10.54;59.56;102280.09;4978955;28;20027;-88
2021/03/06 03:26:13;;;;;;;71.37;40.27;;;;;;;10.23;59.55;102276.00;4971459;28;20030;-86
2021/03/06 03:28:47;;;;;;;67.10;41.30;;;;;;;9.73;59.77;102229.28;4970122;28;20031;-85
2021/03/06 03:31:14;;;;;;;64.45;38.92;;;;;;;9.97;60.14;102258.28;4972027;28;20030;-86
2021/03/06 03:33:42;;;;;;;57.70;37.83;;;;;;;9.70;59.48;102180.75;4966516;28;20125;-85
2021/03/06 03:36:10;;;;;;;69.65;40.83;;;;;;;8.85;59.48;102042.97;4968613;28;20034;-86
2021/03/06 03:38:38;;;;;;;59.40;36.58;;;;;;;10.25;57.91;102231.50;4972411;28;20026;-89
2021/03/06 03:41:10;;;;;;;57.90;34.33;;;;;;;9.91;57.42;102159.53;4972567;28;20089;-83
2021/03/06 03:43:38;;;;;;;62.90;35.13;;;;;;;10.20;57.31;102174.03;4988861;28;20035;-95
2021/03/06 03:46:06;;;;;;;52.85;33.25;;;;;;;10.25;56.88;102165.94;4978685;28;20502;-93
2021/03/06 03:48:35;;;;;;;66.25;35.22;;;;;;;10.47;57.00;102215.56;4973334;28;20041;-90
2021/03/06 03:51:03;;;;;;;57.97;34.70;;;;;;;10.90;56.46;102268.81;4974906;28;20042;-86
2021/03/06 03:53:31;;;;;;;57.63;34.20;;;;;;;10.05;56.59;102098.66;4970567;28;20073;-86
2021/03/06 03:56:00;;;;;;;56.63;33.85;;;;;;;10.65;55.02;102180.84;4970071;28;20106;-84
2021/03/06 03:58:27;;;;;;;54.40;32.23;;;;;;;11.04;54.26;102253.88;4970438;28;20122;-89
2021/03/06 04:01:01;;;;;;;50.70;30.58;;;;;;;10.87;54.58;102247.94;4965961;28;20318;-84
2021/03/06 04:03:29;;;;;;;40.58;25.83;;;;;;;10.84;54.26;102215.13;4968200;28;20041;-88
2021/03/06 04:06:02;;;;;;;41.30;25.23;;;;;;;10.69;53.43;102179.31;4978323;28;20057;-88
2021/03/06 04:08:29;;;;;;;44.47;26.58;;;;;;;10.76;53.85;102254.13;4969757;28;20498;-86
2021/03/06 04:10:55;;;;;;;44.50;25.27;;;;;;;10.41;53.35;102174.88;4981594;28;20037;-87
2021/03/06 04:13:23;;;;;;;39.90;25.15;;;;;;;10.67;53.20;102181.47;4984284;28;20150;-85
2021/03/06 04:15:49;;;;;;;45.45;26.27;;;;;;;9.40;53.51;101965.47;4986984;28;20038;-86
2021/03/06 04:18:16;;;;;;;44.53;26.63;;;;;;;11.21;53.52;102234.88;4971209;28;20014;-86
2021/03/06 04:20:43;;;;;;;49.40;29.27;;;;;;;10.35;52.66;102126.72;4971517;28;20027;-85
2021/03/06 04:23:10;;;;;;;39.50;24.70;;;;;;;11.15;52.92;102248.72;4975481;28;20122;-84
2021/03/06 04:25:37;;;;;;;46.25;26.80;;;;;;;10.96;52.68;102198.69;4970581;28;20019;-85
2021/03/06 04:28:05;;;;;;;35.60;22.88;;;;;;;10.62;51.61;102159.09;4971145;28;20026;-86
2021/03/06 04:30:32;;;;;;;38.15;21.58;;;;;;;11.02;50.35;102236.63;4968393;28;20062;-84
2021/03/06 04:32:59;;;;;;;37.28;22.67;;;;;;;10.69;51.72;102168.25;4967929;28;20045;-86
2021/03/06 04:35:26;;;;;;;45.95;25.85;;;;;;;10.02;52.04;102066.72;4966108;28;20027;-86
2021/03/06 04:37:53;;;;;;;41.15;25.42;;;;;;;10.60;51.74;102139.94;4966217;28;20049;-86
2021/03/06 04:40:20;;;;;;;38.78;21.13;;;;;;;10.66;50.34;102138.22;4970204;28;20039;-85
2021/03/06 04:42:47;;;;;;;34.72;23.50;;;;;;;10.08;51.07;102031.81;4968650;28;20074;-86
2021/03/06 04:45:14;;;;;;;39.33;24.80;;;;;;;11.13;50.88;102250.88;4971406;28;20027;-87
2021/03/06 04:47:43;;;;;;;33.50;20.08;;;;;;;10.74;50.35;102182.31;4970345;28;20040;-86
2021/03/06 04:50:11;;;;;;;36.85;22.40;;;;;;;10.29;51.25;102115.69;4968750;28;20077;-86
2021/03/06 04:52:38;;;;;;;30.85;19.02;;;;;;;10.29;50.40;102126.75;4970395;28;20031;-85
2021/03/06 04:55:12;;;;;;;34.47;20.30;;;;;;;9.32;50.80;102009.91;4970117;28;20027;-85
2021/03/06 04:57:39;;;;;;;28.77;20.13;;;;;;;9.84;50.64;102086.75;4971794;28;20026;-87
2021/03/06 05:00:08;;;;;;;40.00;21.42;;;;;;;10.03;50.67;102139.53;4967792;28;20023;-86
2021/03/06 05:02:36;;;;;;;30.70;17.73;;;;;;;10.66;50.99;102205.53;4968379;28;20498;-87
2021/03/06 05:05:07;;;;;;;32.15;19.60;;;;;;;10.92;50.62;102222.34;4961065;28;20030;-86
2021/03/06 05:07:34;;;;;;;31.65;16.90;;;;;;;11.04;49.64;102222.53;4968573;28;20045;-85
2021/03/06 05:10:02;;;;;;;35.65;19.33;;;;;;;10.17;49.03;102099.69;4981278;28;20054;-86
2021/03/06 05:12:29;;;;;;;31.63;19.33;;;;;;;9.81;49.04;102045.69;4971581;28;20150;-86
2021/03/06 05:14:56;;;;;;;32.45;17.92;;;;;;;10.45;48.75;102145.72;4969801;28;20062;-86
2021/03/06 05:17:23;;;;;;;39.58;17.80;;;;;;;10.72;49.06;102198.31;4966808;28;20053;-87
2021/03/06 05:19:50;;;;;;;32.75;19.05;;;;;;;10.29;48.83;102121.22;4960354;28;20031;-86
2021/03/06 05:22:17;;;;;;;27.02;18.05;;;;;;;9.86;48.57;102034.81;4962533;28;20045;-86
2021/03/06 05:24:45;;;;;;;27.25;17.17;;;;;;;10.40;48.75;102148.22;4966126;28;20061;-87
2021/03/06 05:27:12;;;;;;;31.75;17.90;;;;;;;10.39;48.68;102128.00;4970327;28;20027;-86
2021/03/06 05:29:40;;;;;;;31.23;18.13;;;;;;;10.80;48.68;102217.47;4967593;28;20030;-85
2021/03/06 05:32:07;;;;;;;27.25;15.52;;;;;;;9.92;48.83;102067.16;4969247;28;20022;-85
2021/03/06 05:34:35;;;;;;;29.38;17.40;;;;;;;10.44;48.33;102168.94;4968437;28;20058;-85
2021/03/06 05:37:03;;;;;;;24.90;14.05;;;;;;;9.55;48.53;102058.41;4967368;28;20369;-86
2021/03/06 05:39:30;;;;;;;30.35;17.38;;;;;;;10.48;48.86;102213.66;4961774;28;20464;-85
2021/03/06 05:41:58;;;;;;;28.77;16.13;;;;;;;10.51;49.17;102219.63;4969287;28;20038;-85
2021/03/06 05:44:27;;;;;;;26.30;15.50;;;;;;;10.15;48.41;102162.72;4967184;28;20030;-87
2021/03/06 05:46:57;;;;;;;28.77;17.83;;;;;;;10.47;47.88;102185.09;4962262;28;20508;-86
2021/03/06 05:49:24;;;;;;;28.27;15.90;;;;;;;10.10;48.14;102134.88;4971137;28;20062;-85
2021/03/06 05:51:53;;;;;;;31.80;16.00;;;;;;;9.68;48.10;102041.84;4970240;28;20039;-85
2021/03/06 05:54:25;;;;;;;25.98;15.02;;;;;;;9.66;47.86;101996.97;4965241;28;20071;-87
2021/03/06 05:56:53;;;;;;;30.35;15.73;;;;;;;11.02;47.40;102210.81;4957427;28;20034;-85
2021/03/06 05:59:23;;;;;;;19.92;14.05;;;;;;;10.74;46.88;102200.84;4953986;28;20085;-85
2021/03/06 06:01:50;;;;;;;25.35;14.35;;;;;;;10.24;47.77;102186.34;4952913;28;20050;-85
2021/03/06 06:04:19;;;;;;;26.00;14.20;;;;;;;10.12;48.46;102196.38;4965920;28;20502;-88
2021/03/06 06:06:47;;;;;;;29.97;15.63;;;;;;;8.98;48.01;102009.00;4970386;28;20020;-87
2021/03/06 06:09:14;;;;;;;26.60;15.52;;;;;;;10.37;47.86;102217.88;4965507;28;20412;-86
2021/03/06 06:11:41;;;;;;;25.13;14.35;;;;;;;9.83;48.00;102145.91;4975984;28;20102;-85
2021/03/06 06:14:08;;;;;;;24.08;14.48;;;;;;;10.51;47.52;102222.41;4969215;28;20044;-87
2021/03/06 06:16:36;;;;;;;26.55;14.65;;;;;;;8.69;48.04;101942.00;4955762;29;20035;-86
2021/03/06 06:19:06;;;;;;;25.05;13.60;;;;;;;9.98;47.98;102188.06;4959401;28;20018;-86
2021/03/06 06:21:47;;;;;;;24.63;13.38;;;;;;;10.05;47.88;102220.41;4962994;28;20045;-85
2021/03/06 06:24:19;;;;;;;21.55;13.20;;;;;;;9.13;48.08;102125.72;4969103;28;20027;-87
2021/03/06 06:27:00;;;;;;;26.77;15.18;;;;;;;9.33;47.97;102129.63;4973322;28;20070;-86
2021/03/06 06:29:45;;;;;;;26.35;14.30;;;;;;;9.39;48.24;102167.50;4976584;28;20022;-86
2021/03/06 06:32:15;;;;;;;27.52;14.63;;;;;;;8.11;48.67;102002.00;4976813;28;20030;-86
2021/03/06 06:34:44;;;;;;;34.25;14.35;;;;;;;9.84;47.52;102248.03;4974219;28;20022;-86
2021/03/06 06:37:13;;;;;;;28.87;16.03;;;;;;;9.66;48.08;102228.41;4974659;28;20070;-86
2021/03/06 06:39:42;;;;;;;25.33;13.90;;;;;;;8.91;47.79;102122.22;4973369;28;20027;-86
2021/03/06 06:42:09;;;;;;;24.45;13.85;;;;;;;9.62;47.89;102222.44;4973310;28;20034;-85
2021/03/06 06:44:38;;;;;;;22.92;12.40;;;;;;;9.35;47.70;102213.19;4974879;28;20031;-86
2021/03/06 06:47:16;;;;;;;29.42;15.30;;;;;;;9.04;47.77;102171.19;4981387;28;20026;-85
2021/03/06 06:49:47;;;;;;;29.27;14.18;;;;;;;9.51;48.76;102256.22;4989830;28;20030;-84
2021/03/06 06:52:16;;;;;;;28.13;15.63;;;;;;;9.56;48.62;102267.50;4975167;28;20074;-84
2021/03/06 06:54:58;;;;;;;32.08;17.05;;;;;;;9.07;48.38;102184.56;4983660;28;20031;-85
2021/03/06 06:57:26;;;;;;;26.75;13.75;;;;;;;8.83;48.39;102159.16;4978359;28;20034;-86
2021/03/06 06:59:57;;;;;;;22.88;12.95;;;;;;;8.58;48.72;102123.75;4977526;28;20492;-82
2021/03/06 07:02:25;;;;;;;23.40;11.63;;;;;;;8.65;48.69;102137.59;4977982;28;20038;-83
2021/03/06 07:04:57;;;;;;;31.17;14.30;;;;;;;8.53;48.39;102093.16;4971938;28;20034;-81
2021/03/06 07:07:38;;;;;;;27.52;13.35;;;;;;;9.43;48.72;102263.63;4981618;28;20038;-87
2021/03/06 07:10:13;;;;;;;24.35;13.90;;;;;;;8.99;48.15;102193.88;4977583;28;20019;-88
2021/03/06 07:12:59;;;;;;;23.55;13.73;;;;;;;9.26;47.94;102267.78;4979966;28;20054;-86
2021/03/06 07:15:29;;;;;;;25.10;12.27;;;;;;;9.26;48.43;102278.81;4978667;28;20054;-86
2021/03/06 07:18:02;;;;;;;24.08;12.63;;;;;;;8.52;48.73;102179.78;4963913;28;20417;-86
2021/03/06 07:20:32;;;;;;;29.85;13.52;;;;;;;9.19;48.92;102287.09;4964988;28;20038;-86
2021/03/06 07:23:11;;;;;;;;;;;;;;;9.15;48.37;102283.88;4970009;28;20033;-86
2021/03/06 07:25:38;;;;;;;21.27;10.77;;;;;;;9.00;48.60;102285.91;4968725;28;19914;-87
2021/03/06 07:28:06;;;;;;;26.55;12.38;;;;;;;8.92;49.15;102288.81;4975892;28;20037;-88
2021/03/06 07:30:33;;;;;;;23.80;11.93;;;;;;;9.06;49.19;102279.56;4970102;28;20055;-84
2021/03/06 07:33:05;;;;;;;25.10;13.18;;;;;;;8.62;48.52;102232.72;4969042;28;20030;-87
2021/03/06 07:35:38;;;;;;;24.73;11.57;;;;;;;8.76;48.49;102268.72;4969062;28;20381;-85
2021/03/06 07:38:18;;;;;;;24.65;12.45;;;;;;;8.96;48.91;102301.16;4962855;28;20074;-85
2021/03/06 07:40:59;;;;;;;17.00;10.32;;;;;;;9.02;48.65;102292.06;4961420;28;20031;-84
2021/03/06 07:43:41;;;;;;;22.92;12.82;;;;;;;8.97;48.67;102297.38;4972242;28;20035;-85
2021/03/06 07:46:12;;;;;;;31.17;10.50;;;;;;;8.30;49.07;102218.41;4965106;28;20452;-88
2021/03/06 07:48:51;;;;;;;25.55;12.50;;;;;;;8.86;49.20;102302.38;4975163;28;20065;-84
2021/03/06 07:51:23;;;;;;;23.33;10.05;;;;;;;7.15;49.32;102023.50;4964958;28;20038;-84
2021/03/06 07:53:50;;;;;;;19.90;10.80;;;;;;;8.41;49.24;102236.34;4972749;28;20497;-85
2021/03/06 07:56:18;;;;;;;27.88;11.65;;;;;;;7.69;49.34;102114.97;4963961;28;20066;-85
2021/03/06 07:58:53;;;;;;;26.85;13.15;;;;;;;7.12;48.83;102043.16;4974060;28;20027;-86
2021/03/06 08:01:34;;;;;;;19.55;11.57;;;;;;;8.34;49.40;102258.34;4974258;28;20069;-85
2021/03/06 08:04:03;;;;;;;26.85;13.90;;;;;;;7.70;48.95;102163.53;4985369;28;20030;-84
2021/03/06 08:06:34;;;;;;;25.77;11.88;;;;;;;8.38;49.43;102266.25;4958481;28;20066;-84
2021/03/06 08:09:09;;;;;;;20.65;10.63;;;;;;;7.90;49.24;102193.22;4967744;28;20030;-85
2021/03/06 08:11:40;;;;;;;21.73;12.05;;;;;;;8.05;49.30;102235.38;4966234;28;20407;-85
2021/03/06 08:14:28;;;;;;;22.02;11.27;;;;;;;8.58;49.06;102311.50;4971430;28;20449;-85
2021/03/06 08:16:55;;;;;;;24.25;12.13;;;;;;;5.99;48.97;101906.72;4961635;28;20035;-86
2021/03/06 08:19:24;;;;;;;23.70;10.35;;;;;;;7.91;49.65;102239.88;4955003;28;20047;-86
2021/03/06 08:21:56;;;;;;;17.30;10.52;;;;;;;7.43;49.25;102156.88;4968038;28;20061;-84
2021/03/06 08:24:27;;;;;;;22.23;11.18;;;;;;;6.74;49.05;102080.00;4968702;28;20543;-85
2021/03/06 08:27:02;;;;;;;;;;;;;;;8.32;49.48;102329.44;4968457;28;20539;-85
2021/03/06 08:29:30;;;;;;;20.77;10.88;;;;;;;8.25;49.43;102328.53;4971991;28;19914;-85
2021/03/06 08:32:02;;;;;;;18.08;10.80;;;;;;;8.18;49.32;102327.59;4973074;28;20031;-85
2021/03/06 08:34:36;;;;;;;22.25;10.38;;;;;;;8.08;49.73;102331.53;4972268;28;20118;-85
2021/03/06 08:37:22;;;;;;;18.90;10.95;;;;;;;8.04;49.64;102332.97;4972560;28;20031;-86
2021/03/06 08:40:07;;;;;;;19.13;10.57;;;;;;;8.05;49.62;102339.34;4959101;28;20031;-85
2021/03/06 08:42:48;;;;;;;22.70;11.13;;;;;;;7.39;49.58;102248.19;4960794;28;20067;-85
2021/03/06 08:45:26;;;;;;;25.25;11.13;;;;;;;7.83;49.67;102325.50;4968582;28;20042;-85
2021/03/06 08:48:01;;;;;;;22.25;10.38;;;;;;;7.06;50.39;102226.56;4972535;28;20015;-84
2021/03/06 08:50:30;;;;;;;23.45;10.52;;;;;;;7.77;50.04;102338.16;4968633;28;20069;-85
2021/03/06 08:53:12;;;;;;;20.77;9.85;;;;;;;7.55;49.51;102293.09;4972032;28;20077;-86
2021/03/06 08:55:41;;;;;;;18.23;10.02;;;;;;;6.61;50.01;102165.97;4971967;28;20399;-87
2021/03/06 08:58:13;;;;;;;23.10;10.30;;;;;;;5.04;50.01;101912.66;4965262;28;20026;-86
2021/03/06 09:00:47;;;;;;;20.23;10.27;;;;;;;7.64;50.38;102343.50;4973188;28;20030;-86
2021/03/06 09:03:27;;;;;;;20.65;9.98;;;;;;;7.51;50.08;102339.50;4984218;28;20114;-85
2021/03/06 09:05:57;;;;;;;24.33;10.65;;;;;;;6.24;50.12;102123.72;4971664;28;20034;-86
2021/03/06 09:08:27;;;;;;;24.33;10.60;;;;;;;6.75;50.30;102216.56;4971392;28;20061;-83
2021/03/06 09:10:59;;;;;;;20.20;11.02;;;;;;;4.70;50.73;101884.63;4974544;28;20042;-84
2021/03/06 09:13:31;;;;;;;16.02;9.70;;;;;;;6.79;50.46;102250.09;4981484;28;20393;-85
2021/03/06 09:16:03;;;;;;;18.58;9.00;;;;;;;6.98;51.02;102295.50;4975251;28;20031;-86
2021/03/06 09:18:38;;;;;;;21.00;9.40;;;;;;;6.25;50.62;102202.44;4969464;28;20012;-85
2021/03/06 09:21:20;;;;;;;16.50;8.25;;;;;;;7.24;51.00;102365.78;4960584;28;20035;-87
2021/03/06 09:23:55;;;;;;;22.15;10.40;;;;;;;6.79;50.39;102302.38;4970422;28;20031;-93
2021/03/06 09:26:25;;;;;;;20.23;9.93;;;;;;;6.24;50.97;102218.06;4977293;28;20022;-83
2021/03/06 09:28:59;;;;;;;19.10;8.38;;;;;;;6.84;51.24;102332.97;4981450;28;20038;-84
2021/03/06 09:31:29;;;;;;;23.98;10.25;;;;;;;5.68;51.21;102113.84;4971938;28;20042;-83
2021/03/06 09:33:58;;;;;;;18.02;8.93;;;;;;;6.49;50.81;102264.66;4971674;28;20038;-84
2021/03/06 09:36:30;;;;;;;32.15;10.48;;;;;;;6.36;50.85;102259.75;4972722;28;20027;-84
2021/03/06 09:39:02;;;;;;;36.42;10.70;;;;;;;6.95;51.03;102367.47;4968531;28;20039;-88
2021/03/06 09:41:46;;;;;;;19.90;9.57;;;;;;;6.91;51.05;102418.44;4970990;28;20046;-90
2021/03/06 09:44:14;;;;;;;23.10;9.65;;;;;;;5.58;51.26;102167.16;4974514;28;20085;-87
2021/03/06 09:46:46;;;;;;;14.48;8.73;;;;;;;6.91;51.04;102371.63;4968430;28;20078;-86
2021/03/06 09:49:15;;;;;;;21.85;9.90;;;;;;;5.29;51.51;102116.53;4965085;28;20033;-84
2021/03/06 09:51:45;;;;;;;15.68;9.10;;;;;;;6.87;51.09;102365.63;4966753;28;20039;-82
2021/03/06 09:54:17;;;;;;;15.18;8.32;;;;;;;6.30;51.34;102299.00;4959151;28;20033;-85
2021/03/06 09:56:49;;;;;;;21.65;8.30;;;;;;;6.79;51.10;102384.97;4957852;28;20125;-85
2021/03/06 09:59:16;;;;;;;15.82;9.07;;;;;;;6.31;51.50;102317.25;4968276;28;20027;-86
2021/03/06 10:01:44;;;;;;;20.55;9.98;;;;;;;6.76;51.69;102396.38;4959039;28;20090;-83
2021/03/06 10:04:22;;;;;;;15.90;9.13;;;;;;;5.89;51.59;102287.19;4965819;28;20043;-94
2021/03/06 10:06:55;;;;;;;13.63;8.70;;;;;;;5.61;51.56;102212.66;4961178;28;20047;-85
2021/03/06 10:09:31;;;;;;;19.73;7.68;;;;;;;6.16;51.28;102323.53;4955585;28;20163;-85
2021/03/06 10:12:05;;;;;;;14.93;7.47;;;;;;;5.11;51.68;102154.38;4971726;28;20408;-86
2021/03/06 10:14:32;;;;;;;16.65;9.95;;;;;;;6.57;51.33;102421.44;4962250;28;20055;-84
2021/03/06 10:17:02;;;;;;;15.63;8.23;;;;;;;6.52;51.68;102403.75;4988539;28;20026;-83
2021/03/06 10:19:37;;;;;;;17.45;9.35;;;;;;;6.53;51.41;102425.59;4969334;28;20391;-87
2021/03/06 10:22:07;;;;;;;19.25;9.38;;;;;;;6.02;51.65;102355.38;4980570;28;20030;-84
2021/03/06 10:24:55;;;;;;;15.45;7.90;;;;;;;6.48;51.74;102421.66;4976240;28;20035;-89
2021/03/06 10:27:38;;;;;;;21.00;8.70;;;;;;;6.56;51.92;102436.22;4972587;28;20035;-83
2021/03/06 10:30:16;;;;;;;19.95;10.02;;;;;;;6.52;51.96;102418.38;4979827;28;20015;-92
2021/03/06 10:32:56;;;;;;;14.73;8.57;;;;;;;6.50;51.86;102425.09;4978044;28;20495;-81
2021/03/06 10:35:38;;;;;;;20.75;8.02;;;;;;;6.43;51.48;102420.31;4969446;28;20429;-96
2021/03/06 10:38:08;;;;;;;21.50;8.88;;;;;;;6.33;51.18;102403.19;4957480;28;20035;-95
2021/03/06 10:40:51;;;;;;;25.40;9.25;;;;;;;6.46;51.62;102443.84;4960552;28;20043;-92
2021/03/06 10:43:34;;;;;;;22.08;9.88;;;;;;;6.44;51.63;102438.53;4963215;28;20449;-89
2021/03/06 10:46:16;;;;;;;16.98;9.38;;;;;;;6.35;52.45;102436.84;4965510;28;20055;-91
2021/03/06 10:48:45;;;;;;;18.35;8.82;;;;;;;6.30;52.35;102437.41;4966819;28;20034;-94
2021/03/06 10:51:12;;;;;;;19.13;8.23;;;;;;;6.37;52.34;102444.94;4967315;28;20059;-92
2021/03/06 10:53:39;;;;;;;17.80;8.73;;;;;;;6.16;52.02;102407.91;4971122;28;20035;-93
2021/03/06 10:56:21;;;;;;;18.52;9.00;;;;;;;6.32;52.57;102455.63;4975603;28;20031;-94
2021/03/06 10:58:50;;;;;;;15.88;8.60;;;;;;;5.99;52.16;102385.09;4978762;28;20463;-93
2021/03/06 11:01:17;;;;;;;12.90;8.88;;;;;;;5.35;52.21;102296.19;4949756;28;20036;-94
2021/03/06 11:03:49;;;;;;;13.60;8.25;;;;;;;6.16;52.18;102428.03;4984075;28;20082;-92
2021/03/06 11:06:18;;;;;;;15.70;9.65;;;;;;;6.34;52.98;102453.53;4970739;28;20047;-85
2021/03/06 11:09:05;;;;;;;21.35;9.93;;;;;;;6.11;52.12;102444.19;4961418;28;20079;-86
2021/03/06 11:11:32;;;;;;;16.90;9.63;;;;;;;5.80;52.25;102379.00;4972100;28;20034;-85
2021/03/06 11:13:59;;;;;;;15.93;9.27;;;;;;;6.24;52.72;102454.63;4962772;28;20066;-85
2021/03/06 11:16:38;;;;;;;16.25;8.50;;;;;;;6.18;53.02;102458.09;4959614;28;20480;-85
2021/03/06 11:19:07;;;;;;;20.77;8.50;;;;;;;5.91;53.23;102435.47;4967644;28;20527;-86
2021/03/06 11:21:34;;;;;;;19.30;9.93;;;;;;;5.34;52.68;102360.41;4979478;28;20049;-84
2021/03/06 11:24:01;;;;;;;18.10;10.02;;;;;;;5.10;53.20;102329.22;4983809;28;20027;-87
2021/03/06 11:26:29;;;;;;;18.15;9.13;;;;;;;5.60;53.05;102414.28;4976046;28;20023;-86
2021/03/06 11:28:56;;;;;;;21.90;10.65;;;;;;;5.98;53.24;102482.38;4967761;28;20029;-86
2021/03/06 11:31:24;;;;;;;13.90;7.43;;;;;;;5.23;53.13;102369.03;4965568;28;20046;-84
2021/03/06 11:33:51;;;;;;;23.48;11.57;;;;;;;5.60;53.01;102426.13;4968536;28;20031;-85
2021/03/06 11:36:22;;;;;;;18.40;8.27;;;;;;;5.03;53.28;102336.44;4969920;28;20079;-84